KPAM/PAM METAR and TAF weather

Enter ICAO airport designator
Station Type Date Time Source
KPAM METAR 2019/12/09 21:56 UTC NOAA

KPAM 092156Z 27003KT 10SM FEW025 SCT031 21/18 A3001 RMK A02A SLP165 T02120182 $


Station Type Date Time Source
KPAM Decoded METAR 2019/12/09 21:56 UTC NOAA

Tyndall Air Force Base, FL, United States (KPAM) 30-04N 085-35W 13M
Dec 09, 2019 - 04:56 PM EST / 2019.12.09 2156 UTC
Wind: from the W (270 degrees) at 3 MPH (3 KT):0
Visibility: 10 mile(s):0
Sky conditions: partly cloudy
Temperature: 70.2 F (21.2 C)
Dew Point: 64.8 F (18.2 C)
Relative Humidity: 83%
Pressure (altimeter): 30.01 in. Hg (1016 hPa)
ob: KPAM 092156Z 27003KT 10SM FEW025 SCT031 21/18 A3001 RMK A02A SLP165 T02120182
cycle: 22

Station Type Date Time Source
KPAM TAF 2019/12/09 19:27 UTC NOAA

TAF TAF KPAM 091900Z 0919/1101 25010KT 9999 FEW025 SCT250 QNH2998INS
BECMG 0922/0923 10006KT 9999 BKN020 QNH3000INS
BECMG 1008/1009 09006KT 4800 BR BKN020 QNH3001INS TX23/0921Z TN19/0919Z LAST NO
AMDS AFT 0923 NEXT 1011

Example: see airport list